sensor_id;sensor_type;location;lat;lon;timestamp;P1;durP1;ratioP1;P2;durP2;ratioP2
69059;SDS011;56135;37.534;-122.308;2023-02-13T00:00:46;0.20;;;0.20;;
69059;SDS011;56135;37.534;-122.308;2023-02-13T00:03:13;0.08;;;0.08;;
69059;SDS011;56135;37.534;-122.308;2023-02-13T00:05:39;0.52;;;0.30;;
69059;SDS011;56135;37.534;-122.308;2023-02-13T00:08:05;0.65;;;0.50;;
69059;SDS011;56135;37.534;-122.308;2023-02-13T00:10:32;4.47;;;0.40;;
69059;SDS011;56135;37.534;-122.308;2023-02-13T00:12:58;0.20;;;0.20;;
69059;SDS011;56135;37.534;-122.308;2023-02-13T00:15:24;0.28;;;0.13;;
69059;SDS011;56135;37.534;-122.308;2023-02-13T00:17:50;1.65;;;0.40;;
69059;SDS011;56135;37.534;-122.308;2023-02-13T00:20:17;0.20;;;0.10;;
69059;SDS011;56135;37.534;-122.308;2023-02-13T00:22:43;1.88;;;0.30;;
69059;SDS011;56135;37.534;-122.308;2023-02-13T00:25:09;0.73;;;0.30;;
69059;SDS011;56135;37.534;-122.308;2023-02-13T00:27:36;0.22;;;0.22;;
69059;SDS011;56135;37.534;-122.308;2023-02-13T00:30:02;0.20;;;0.20;;
69059;SDS011;56135;37.534;-122.308;2023-02-13T00:32:29;1.08;;;0.40;;
69059;SDS011;56135;37.534;-122.308;2023-02-13T00:34:56;0.70;;;0.45;;
69059;SDS011;56135;37.534;-122.308;2023-02-13T00:37:22;1.30;;;0.47;;
69059;SDS011;56135;37.534;-122.308;2023-02-13T00:39:49;0.75;;;0.28;;
69059;SDS011;56135;37.534;-122.308;2023-02-13T00:42:16;1.10;;;0.50;;
69059;SDS011;56135;37.534;-122.308;2023-02-13T00:44:42;0.32;;;0.32;;
69059;SDS011;56135;37.534;-122.308;2023-02-13T00:47:08;0.80;;;0.20;;
69059;SDS011;56135;37.534;-122.308;2023-02-13T00:49:34;0.28;;;0.20;;
69059;SDS011;56135;37.534;-122.308;2023-02-13T00:52:01;0.20;;;0.20;;
69059;SDS011;56135;37.534;-122.308;2023-02-13T00:54:27;0.60;;;0.30;;
69059;SDS011;56135;37.534;-122.308;2023-02-13T00:56:53;3.17;;;0.60;;
69059;SDS011;56135;37.534;-122.308;2023-02-13T00:59:19;1.45;;;0.25;;
69059;SDS011;56135;37.534;-122.308;2023-02-13T01:01:45;0.50;;;0.30;;
69059;SDS011;56135;37.534;-122.308;2023-02-13T01:04:12;2.53;;;0.40;;
69059;SDS011;56135;37.534;-122.308;2023-02-13T01:06:38;0.28;;;0.28;;
69059;SDS011;56135;37.534;-122.308;2023-02-13T01:09:04;1.15;;;0.80;;
69059;SDS011;56135;37.534;-122.308;2023-02-13T01:11:30;1.88;;;0.60;;
69059;SDS011;56135;37.534;-122.308;2023-02-13T01:13:57;0.20;;;0.20;;
69059;SDS011;56135;37.534;-122.308;2023-02-13T01:16:23;1.10;;;0.50;;
69059;SDS011;56135;37.534;-122.308;2023-02-13T01:18:49;1.48;;;0.73;;
69059;SDS011;56135;37.534;-122.308;2023-02-13T01:21:16;0.82;;;0.50;;
69059;SDS011;56135;37.534;-122.308;2023-02-13T01:23:44;4.00;;;1.90;;
69059;SDS011;56135;37.534;-122.308;2023-02-13T01:26:12;2.17;;;0.60;;
69059;SDS011;56135;37.534;-122.308;2023-02-13T01:28:42;3.05;;;0.30;;
69059;SDS011;56135;37.534;-122.308;2023-02-13T01:31:09;3.40;;;1.35;;
69059;SDS011;56135;37.534;-122.308;2023-02-13T01:33:35;0.40;;;0.38;;
69059;SDS011;56135;37.534;-122.308;2023-02-13T01:36:08;1.85;;;0.40;;
69059;SDS011;56135;37.534;-122.308;2023-02-13T01:38:35;1.05;;;0.40;;
69059;SDS011;56135;37.534;-122.308;2023-02-13T01:41:02;0.93;;;0.30;;
69059;SDS011;56135;37.534;-122.308;2023-02-13T01:46:10;2.63;;;0.50;;
69059;SDS011;56135;37.534;-122.308;2023-02-13T01:48:37;0.30;;;0.30;;
69059;SDS011;56135;37.534;-122.308;2023-02-13T01:51:06;1.85;;;0.50;;
69059;SDS011;56135;37.534;-122.308;2023-02-13T01:53:43;1.33;;;0.93;;
69059;SDS011;56135;37.534;-122.308;2023-02-13T01:56:40;2.47;;;0.45;;
69059;SDS011;56135;37.534;-122.308;2023-02-13T01:59:16;3.53;;;0.43;;
69059;SDS011;56135;37.534;-122.308;2023-02-13T02:01:47;3.70;;;0.52;;
69059;SDS011;56135;37.534;-122.308;2023-02-13T02:04:16;0.77;;;0.30;;
69059;SDS011;56135;37.534;-122.308;2023-02-13T02:06:49;1.75;;;0.30;;
69059;SDS011;56135;37.534;-122.308;2023-02-13T02:09:22;0.45;;;0.22;;
69059;SDS011;56135;37.534;-122.308;2023-02-13T02:14:32;1.38;;;0.35;;
69059;SDS011;56135;37.534;-122.308;2023-02-13T02:16:58;4.38;;;0.43;;
69059;SDS011;56135;37.534;-122.308;2023-02-13T02:22:04;1.13;;;0.43;;
69059;SDS011;56135;37.534;-122.308;2023-02-13T02:27:20;5.43;;;1.65;;
69059;SDS011;56135;37.534;-122.308;2023-02-13T02:46:59;1.92;;;0.35;;
69059;SDS011;56135;37.534;-122.308;2023-02-13T02:50:31;1.77;;;0.30;;
69059;SDS011;56135;37.534;-122.308;2023-02-13T02:56:24;2.50;;;0.98;;
69059;SDS011;56135;37.534;-122.308;2023-02-13T02:59:01;1.00;;;0.60;;
69059;SDS011;56135;37.534;-122.308;2023-02-13T03:01:50;4.38;;;1.50;;
69059;SDS011;56135;37.534;-122.308;2023-02-13T03:04:39;0.95;;;0.50;;
69059;SDS011;56135;37.534;-122.308;2023-02-13T03:07:29;2.58;;;0.85;;
69059;SDS011;56135;37.534;-122.308;2023-02-13T03:09:57;3.60;;;1.40;;
69059;SDS011;56135;37.534;-122.308;2023-02-13T03:12:50;4.10;;;0.88;;
69059;SDS011;56135;37.534;-122.308;2023-02-13T03:15:37;2.03;;;0.73;;
69059;SDS011;56135;37.534;-122.308;2023-02-13T03:18:30;1.27;;;0.73;;
69059;SDS011;56135;37.534;-122.308;2023-02-13T03:27:18;7.25;;;1.48;;
69059;SDS011;56135;37.534;-122.308;2023-02-13T03:30:12;2.70;;;1.02;;
69059;SDS011;56135;37.534;-122.308;2023-02-13T03:33:11;2.10;;;0.57;;
69059;SDS011;56135;37.534;-122.308;2023-02-13T03:35:58;1.58;;;0.70;;
69059;SDS011;56135;37.534;-122.308;2023-02-13T03:41:37;3.25;;;0.60;;
69059;SDS011;56135;37.534;-122.308;2023-02-13T03:44:26;5.68;;;1.83;;
69059;SDS011;56135;37.534;-122.308;2023-02-13T03:46:58;4.60;;;0.95;;
69059;SDS011;56135;37.534;-122.308;2023-02-13T03:49:35;7.90;;;2.35;;
69059;SDS011;56135;37.534;-122.308;2023-02-13T03:52:26;7.28;;;2.05;;
69059;SDS011;56135;37.534;-122.308;2023-02-13T03:55:05;13.35;;;3.20;;
69059;SDS011;56135;37.534;-122.308;2023-02-13T03:57:57;8.57;;;2.03;;
69059;SDS011;56135;37.534;-122.308;2023-02-13T04:00:47;9.77;;;2.95;;
69059;SDS011;56135;37.534;-122.308;2023-02-13T04:06:20;4.38;;;1.27;;
69059;SDS011;56135;37.534;-122.308;2023-02-13T04:08:54;3.92;;;0.85;;
69059;SDS011;56135;37.534;-122.308;2023-02-13T04:11:34;0.95;;;0.50;;
69059;SDS011;56135;37.534;-122.308;2023-02-13T04:14:08;2.05;;;0.80;;
69059;SDS011;56135;37.534;-122.308;2023-02-13T04:16:43;2.28;;;0.80;;
69059;SDS011;56135;37.534;-122.308;2023-02-13T04:19:17;2.53;;;0.40;;
69059;SDS011;56135;37.534;-122.308;2023-02-13T04:28:32;2.47;;;0.57;;
69059;SDS011;56135;37.534;-122.308;2023-02-13T04:31:11;1.08;;;0.57;;
69059;SDS011;56135;37.534;-122.308;2023-02-13T05:04:49;1.27;;;0.57;;
69059;SDS011;56135;37.534;-122.308;2023-02-13T05:07:15;1.17;;;0.45;;
69059;SDS011;56135;37.534;-122.308;2023-02-13T05:09:41;6.72;;;1.27;;
69059;SDS011;56135;37.534;-122.308;2023-02-13T05:12:07;0.85;;;0.45;;
69059;SDS011;56135;37.534;-122.308;2023-02-13T05:14:34;1.25;;;0.73;;
69059;SDS011;56135;37.534;-122.308;2023-02-13T05:17:00;0.65;;;0.28;;
69059;SDS011;56135;37.534;-122.308;2023-02-13T05:19:26;1.38;;;0.85;;
69059;SDS011;56135;37.534;-122.308;2023-02-13T05:21:52;4.38;;;0.65;;
69059;SDS011;56135;37.534;-122.308;2023-02-13T05:24:37;0.60;;;0.50;;
69059;SDS011;56135;37.534;-122.308;2023-02-13T05:27:03;1.88;;;0.73;;
69059;SDS011;56135;37.534;-122.308;2023-02-13T05:29:29;1.52;;;0.80;;
69059;SDS011;56135;37.534;-122.308;2023-02-13T05:31:56;1.08;;;0.50;;
69059;SDS011;56135;37.534;-122.308;2023-02-13T05:34:24;1.08;;;0.40;;
69059;SDS011;56135;37.534;-122.308;2023-02-13T05:36:52;1.45;;;0.57;;
69059;SDS011;56135;37.534;-122.308;2023-02-13T05:39:18;1.27;;;0.60;;
69059;SDS011;56135;37.534;-122.308;2023-02-13T05:44:11;1.70;;;0.57;;
69059;SDS011;56135;37.534;-122.308;2023-02-13T05:46:39;4.72;;;0.50;;
69059;SDS011;56135;37.534;-122.308;2023-02-13T05:49:07;2.83;;;0.52;;
69059;SDS011;56135;37.534;-122.308;2023-02-13T05:51:34;2.95;;;1.33;;
69059;SDS011;56135;37.534;-122.308;2023-02-13T05:54:01;13.15;;;1.23;;
69059;SDS011;56135;37.534;-122.308;2023-02-13T05:56:27;1.08;;;0.73;;
69059;SDS011;56135;37.534;-122.308;2023-02-13T05:58:54;1.75;;;0.77;;
69059;SDS011;56135;37.534;-122.308;2023-02-13T06:01:21;3.05;;;1.05;;
69059;SDS011;56135;37.534;-122.308;2023-02-13T06:03:48;0.98;;;0.30;;
69059;SDS011;56135;37.534;-122.308;2023-02-13T06:06:15;1.27;;;0.50;;
69059;SDS011;56135;37.534;-122.308;2023-02-13T06:08:42;0.45;;;0.40;;
69059;SDS011;56135;37.534;-122.308;2023-02-13T06:11:09;2.55;;;1.05;;
69059;SDS011;56135;37.534;-122.308;2023-02-13T06:13:35;3.03;;;0.40;;
69059;SDS011;56135;37.534;-122.308;2023-02-13T06:16:08;0.77;;;0.40;;
69059;SDS011;56135;37.534;-122.308;2023-02-13T06:18:35;3.38;;;0.50;;
69059;SDS011;56135;37.534;-122.308;2023-02-13T06:21:19;0.60;;;0.35;;
69059;SDS011;56135;37.534;-122.308;2023-02-13T06:23:46;1.10;;;0.32;;
69059;SDS011;56135;37.534;-122.308;2023-02-13T06:26:12;0.10;;;0.08;;
69059;SDS011;56135;37.534;-122.308;2023-02-13T06:28:38;0.55;;;0.52;;
69059;SDS011;56135;37.534;-122.308;2023-02-13T06:31:04;0.40;;;0.40;;
69059;SDS011;56135;37.534;-122.308;2023-02-13T06:33:31;0.65;;;0.47;;
69059;SDS011;56135;37.534;-122.308;2023-02-13T06:35:57;0.65;;;0.65;;
69059;SDS011;56135;37.534;-122.308;2023-02-13T06:38:23;0.60;;;0.40;;
69059;SDS011;56135;37.534;-122.308;2023-02-13T06:40:49;0.43;;;0.30;;
69059;SDS011;56135;37.534;-122.308;2023-02-13T06:43:16;3.08;;;2.15;;
69059;SDS011;56135;37.534;-122.308;2023-02-13T06:45:43;0.95;;;0.35;;
69059;SDS011;56135;37.534;-122.308;2023-02-13T06:48:11;1.45;;;0.30;;
69059;SDS011;56135;37.534;-122.308;2023-02-13T06:50:38;1.40;;;0.50;;
69059;SDS011;56135;37.534;-122.308;2023-02-13T06:53:04;0.98;;;0.40;;
69059;SDS011;56135;37.534;-122.308;2023-02-13T06:55:30;1.67;;;0.73;;
69059;SDS011;56135;37.534;-122.308;2023-02-13T06:57:56;0.20;;;0.20;;
69059;SDS011;56135;37.534;-122.308;2023-02-13T07:00:22;1.35;;;0.30;;
69059;SDS011;56135;37.534;-122.308;2023-02-13T07:02:49;1.95;;;0.25;;
69059;SDS011;56135;37.534;-122.308;2023-02-13T07:05:15;1.95;;;0.70;;
69059;SDS011;56135;37.534;-122.308;2023-02-13T07:07:41;0.70;;;0.45;;
69059;SDS011;56135;37.534;-122.308;2023-02-13T07:10:09;1.77;;;0.60;;
69059;SDS011;56135;37.534;-122.308;2023-02-13T07:12:37;1.50;;;0.63;;
69059;SDS011;56135;37.534;-122.308;2023-02-13T07:15:04;0.40;;;0.30;;
69059;SDS011;56135;37.534;-122.308;2023-02-13T07:17:32;1.27;;;0.50;;
69059;SDS011;56135;37.534;-122.308;2023-02-13T07:19:58;0.40;;;0.32;;
69059;SDS011;56135;37.534;-122.308;2023-02-13T07:22:24;0.75;;;0.30;;
69059;SDS011;56135;37.534;-122.308;2023-02-13T07:24:51;2.28;;;0.50;;
69059;SDS011;56135;37.534;-122.308;2023-02-13T07:27:17;1.70;;;0.70;;
69059;SDS011;56135;37.534;-122.308;2023-02-13T07:29:43;1.88;;;0.43;;
69059;SDS011;56135;37.534;-122.308;2023-02-13T07:32:09;2.38;;;0.82;;
69059;SDS011;56135;37.534;-122.308;2023-02-13T07:34:36;0.63;;;0.40;;
69059;SDS011;56135;37.534;-122.308;2023-02-13T07:37:02;0.52;;;0.38;;
69059;SDS011;56135;37.534;-122.308;2023-02-13T07:39:28;2.42;;;0.60;;
69059;SDS011;56135;37.534;-122.308;2023-02-13T07:41:56;0.93;;;0.60;;
69059;SDS011;56135;37.534;-122.308;2023-02-13T07:44:22;0.32;;;0.32;;
69059;SDS011;56135;37.534;-122.308;2023-02-13T07:46:48;4.45;;;0.90;;
69059;SDS011;56135;37.534;-122.308;2023-02-13T07:49:14;5.20;;;0.50;;
69059;SDS011;56135;37.534;-122.308;2023-02-13T07:51:40;1.30;;;0.50;;
69059;SDS011;56135;37.534;-122.308;2023-02-13T07:54:07;0.98;;;0.38;;
69059;SDS011;56135;37.534;-122.308;2023-02-13T07:56:33;0.70;;;0.50;;
69059;SDS011;56135;37.534;-122.308;2023-02-13T07:58:59;1.05;;;0.63;;
69059;SDS011;56135;37.534;-122.308;2023-02-13T08:01:25;2.65;;;0.38;;
69059;SDS011;56135;37.534;-122.308;2023-02-13T08:03:51;1.20;;;0.60;;
69059;SDS011;56135;37.534;-122.308;2023-02-13T08:06:18;0.52;;;0.40;;
69059;SDS011;56135;37.534;-122.308;2023-02-13T08:08:45;0.35;;;0.32;;
69059;SDS011;56135;37.534;-122.308;2023-02-13T08:11:22;1.90;;;0.63;;
69059;SDS011;56135;37.534;-122.308;2023-02-13T08:14:11;0.52;;;0.50;;
69059;SDS011;56135;37.534;-122.308;2023-02-13T08:16:37;0.10;;;0.10;;
69059;SDS011;56135;37.534;-122.308;2023-02-13T08:19:03;0.55;;;0.38;;
69059;SDS011;56135;37.534;-122.308;2023-02-13T08:21:30;0.45;;;0.30;;
69059;SDS011;56135;37.534;-122.308;2023-02-13T08:23:56;1.10;;;0.60;;
69059;SDS011;56135;37.534;-122.308;2023-02-13T08:26:23;1.30;;;0.40;;
69059;SDS011;56135;37.534;-122.308;2023-02-13T08:28:49;0.38;;;0.20;;
69059;SDS011;56135;37.534;-122.308;2023-02-13T08:31:18;1.08;;;0.60;;
69059;SDS011;56135;37.534;-122.308;2023-02-13T08:33:44;0.17;;;0.17;;
69059;SDS011;56135;37.534;-122.308;2023-02-13T08:36:11;0.28;;;0.25;;
69059;SDS011;56135;37.534;-122.308;2023-02-13T08:38:37;0.63;;;0.60;;
69059;SDS011;56135;37.534;-122.308;2023-02-13T08:41:03;0.32;;;0.32;;
69059;SDS011;56135;37.534;-122.308;2023-02-13T08:43:30;0.28;;;0.15;;
69059;SDS011;56135;37.534;-122.308;2023-02-13T08:45:58;5.10;;;0.45;;
69059;SDS011;56135;37.534;-122.308;2023-02-13T08:48:25;0.60;;;0.32;;
69059;SDS011;56135;37.534;-122.308;2023-02-13T08:50:52;0.63;;;0.52;;
69059;SDS011;56135;37.534;-122.308;2023-02-13T08:53:18;2.13;;;0.63;;
69059;SDS011;56135;37.534;-122.308;2023-02-13T08:55:52;0.95;;;0.35;;
69059;SDS011;56135;37.534;-122.308;2023-02-13T08:58:19;1.10;;;0.60;;
69059;SDS011;56135;37.534;-122.308;2023-02-13T09:00:46;0.20;;;0.20;;
69059;SDS011;56135;37.534;-122.308;2023-02-13T09:03:12;0.43;;;0.38;;
69059;SDS011;56135;37.534;-122.308;2023-02-13T09:05:38;1.80;;;0.40;;
69059;SDS011;56135;37.534;-122.308;2023-02-13T09:08:04;0.20;;;0.20;;
69059;SDS011;56135;37.534;-122.308;2023-02-13T09:10:32;1.75;;;0.38;;
69059;SDS011;56135;37.534;-122.308;2023-02-13T09:12:59;0.82;;;0.52;;
69059;SDS011;56135;37.534;-122.308;2023-02-13T09:15:25;0.35;;;0.32;;
69059;SDS011;56135;37.534;-122.308;2023-02-13T09:17:52;0.65;;;0.40;;
69059;SDS011;56135;37.534;-122.308;2023-02-13T09:20:18;4.55;;;0.55;;
69059;SDS011;56135;37.534;-122.308;2023-02-13T09:22:44;0.32;;;0.30;;
69059;SDS011;56135;37.534;-122.308;2023-02-13T09:25:10;0.68;;;0.68;;
69059;SDS011;56135;37.534;-122.308;2023-02-13T09:27:37;2.42;;;0.25;;
69059;SDS011;56135;37.534;-122.308;2023-02-13T09:30:06;0.98;;;0.40;;
69059;SDS011;56135;37.534;-122.308;2023-02-13T09:32:34;1.30;;;0.40;;
69059;SDS011;56135;37.534;-122.308;2023-02-13T09:35:02;0.45;;;0.28;;
69059;SDS011;56135;37.534;-122.308;2023-02-13T09:37:30;0.38;;;0.38;;
69059;SDS011;56135;37.534;-122.308;2023-02-13T09:39:57;0.90;;;0.50;;
69059;SDS011;56135;37.534;-122.308;2023-02-13T09:42:25;0.73;;;0.30;;
69059;SDS011;56135;37.534;-122.308;2023-02-13T09:44:59;1.70;;;1.08;;
69059;SDS011;56135;37.534;-122.308;2023-02-13T09:47:33;2.40;;;0.90;;
69059;SDS011;56135;37.534;-122.308;2023-02-13T09:50:39;0.77;;;0.32;;
69059;SDS011;56135;37.534;-122.308;2023-02-13T09:52:59;0.65;;;0.40;;
69059;SDS011;56135;37.534;-122.308;2023-02-13T09:55:29;1.13;;;0.52;;
69059;SDS011;56135;37.534;-122.308;2023-02-13T09:59:02;0.30;;;0.30;;
69059;SDS011;56135;37.534;-122.308;2023-02-13T10:01:23;0.32;;;0.30;;
69059;SDS011;56135;37.534;-122.308;2023-02-13T10:06:45;3.88;;;0.82;;
69059;SDS011;56135;37.534;-122.308;2023-02-13T10:14:51;0.45;;;0.43;;
69059;SDS011;56135;37.534;-122.308;2023-02-13T10:17:27;0.40;;;0.30;;
69059;SDS011;56135;37.534;-122.308;2023-02-13T10:19:59;1.55;;;0.30;;
69059;SDS011;56135;37.534;-122.308;2023-02-13T10:22:37;0.38;;;0.15;;
69059;SDS011;56135;37.534;-122.308;2023-02-13T10:25:15;0.70;;;0.40;;
69059;SDS011;56135;37.534;-122.308;2023-02-13T10:27:44;0.22;;;0.22;;
69059;SDS011;56135;37.534;-122.308;2023-02-13T10:30:21;0.22;;;0.20;;
69059;SDS011;56135;37.534;-122.308;2023-02-13T10:32:59;0.20;;;0.20;;
69059;SDS011;56135;37.534;-122.308;2023-02-13T10:38:19;0.43;;;0.43;;
69059;SDS011;56135;37.534;-122.308;2023-02-13T10:41:02;1.27;;;0.60;;
69059;SDS011;56135;37.534;-122.308;2023-02-13T10:49:37;1.05;;;0.50;;
69059;SDS011;56135;37.534;-122.308;2023-02-13T10:54:52;3.85;;;0.57;;
69059;SDS011;56135;37.534;-122.308;2023-02-13T11:00:24;0.03;;;0.03;;
69059;SDS011;56135;37.534;-122.308;2023-02-13T11:03:08;3.10;;;0.80;;
69059;SDS011;56135;37.534;-122.308;2023-02-13T11:05:46;5.40;;;0.40;;
69059;SDS011;56135;37.534;-122.308;2023-02-13T11:08:19;2.53;;;0.40;;
69059;SDS011;56135;37.534;-122.308;2023-02-13T11:10:49;0.93;;;0.30;;
69059;SDS011;56135;37.534;-122.308;2023-02-13T11:13:20;0.50;;;0.50;;
69059;SDS011;56135;37.534;-122.308;2023-02-13T11:15:57;1.33;;;0.98;;
69059;SDS011;56135;37.534;-122.308;2023-02-13T11:18:25;1.52;;;0.40;;
69059;SDS011;56135;37.534;-122.308;2023-02-13T11:21:07;1.95;;;0.80;;
69059;SDS011;56135;37.534;-122.308;2023-02-13T11:23:36;0.40;;;0.40;;
69059;SDS011;56135;37.534;-122.308;2023-02-13T11:28:55;1.85;;;0.93;;
69059;SDS011;56135;37.534;-122.308;2023-02-13T11:33:59;3.25;;;0.98;;
69059;SDS011;56135;37.534;-122.308;2023-02-13T11:36:42;2.28;;;0.38;;
69059;SDS011;56135;37.534;-122.308;2023-02-13T11:39:18;2.40;;;1.70;;
69059;SDS011;56135;37.534;-122.308;2023-02-13T11:41:46;3.53;;;0.40;;
69059;SDS011;56135;37.534;-122.308;2023-02-13T11:44:25;0.60;;;0.40;;
69059;SDS011;56135;37.534;-122.308;2023-02-13T11:46:53;0.52;;;0.45;;
69059;SDS011;56135;37.534;-122.308;2023-02-13T11:49:22;1.08;;;0.30;;
69059;SDS011;56135;37.534;-122.308;2023-02-13T11:51:52;0.55;;;0.20;;
69059;SDS011;56135;37.534;-122.308;2023-02-13T11:59:45;0.85;;;0.43;;
69059;SDS011;56135;37.534;-122.308;2023-02-13T12:04:50;1.00;;;0.88;;
69059;SDS011;56135;37.534;-122.308;2023-02-13T12:07:19;0.68;;;0.40;;
69059;SDS011;56135;37.534;-122.308;2023-02-13T12:09:56;0.38;;;0.30;;
69059;SDS011;56135;37.534;-122.308;2023-02-13T12:15:46;2.20;;;1.05;;
69059;SDS011;56135;37.534;-122.308;2023-02-13T12:18:26;0.37;;;0.27;;
69059;SDS011;56135;37.534;-122.308;2023-02-13T12:23:54;6.03;;;0.32;;
69059;SDS011;56135;37.534;-122.308;2023-02-13T12:26:43;0.95;;;0.40;;
69059;SDS011;56135;37.534;-122.308;2023-02-13T12:51:52;1.63;;;0.45;;
69059;SDS011;56135;37.534;-122.308;2023-02-13T12:54:44;6.50;;;0.55;;
69059;SDS011;56135;37.534;-122.308;2023-02-13T12:57:35;1.08;;;0.43;;
69059;SDS011;56135;37.534;-122.308;2023-02-13T13:00:18;2.47;;;1.13;;
69059;SDS011;56135;37.534;-122.308;2023-02-13T13:03:08;2.47;;;0.77;;
69059;SDS011;56135;37.534;-122.308;2023-02-13T13:06:13;0.90;;;0.55;;
69059;SDS011;56135;37.534;-122.308;2023-02-13T13:09:21;2.38;;;0.68;;
69059;SDS011;56135;37.534;-122.308;2023-02-13T13:14:52;4.32;;;1.10;;
69059;SDS011;56135;37.534;-122.308;2023-02-13T13:25:45;1.42;;;0.68;;
69059;SDS011;56135;37.534;-122.308;2023-02-13T13:28:26;0.43;;;0.38;;
69059;SDS011;56135;37.534;-122.308;2023-02-13T13:30:59;2.72;;;0.77;;
69059;SDS011;56135;37.534;-122.308;2023-02-13T13:33:26;2.60;;;1.20;;
69059;SDS011;56135;37.534;-122.308;2023-02-13T13:44:18;1.40;;;0.50;;
69059;SDS011;56135;37.534;-122.308;2023-02-13T13:47:06;0.32;;;0.32;;
69059;SDS011;56135;37.534;-122.308;2023-02-13T13:49:57;0.82;;;0.47;;
69059;SDS011;56135;37.534;-122.308;2023-02-13T13:52:32;0.63;;;0.47;;
69059;SDS011;56135;37.534;-122.308;2023-02-13T13:55:02;1.42;;;0.35;;
69059;SDS011;56135;37.534;-122.308;2023-02-13T14:02:38;0.70;;;0.45;;
69059;SDS011;56135;37.534;-122.308;2023-02-13T14:05:24;0.93;;;0.52;;
69059;SDS011;56135;37.534;-122.308;2023-02-13T14:07:55;0.43;;;0.40;;
69059;SDS011;56135;37.534;-122.308;2023-02-13T14:28:42;0.95;;;0.93;;
69059;SDS011;56135;37.534;-122.308;2023-02-13T14:31:30;1.20;;;0.90;;
69059;SDS011;56135;37.534;-122.308;2023-02-13T14:34:01;3.13;;;0.47;;
69059;SDS011;56135;37.534;-122.308;2023-02-13T14:36:35;0.55;;;0.40;;
69059;SDS011;56135;37.534;-122.308;2023-02-13T14:39:16;4.82;;;1.70;;
69059;SDS011;56135;37.534;-122.308;2023-02-13T14:44:22;1.40;;;0.35;;
69059;SDS011;56135;37.534;-122.308;2023-02-13T14:49:58;6.05;;;0.70;;
69059;SDS011;56135;37.534;-122.308;2023-02-13T14:52:28;1.35;;;0.75;;
69059;SDS011;56135;37.534;-122.308;2023-02-13T14:55:03;1.05;;;0.55;;
69059;SDS011;56135;37.534;-122.308;2023-02-13T14:57:59;0.85;;;0.50;;
69059;SDS011;56135;37.534;-122.308;2023-02-13T15:05:50;4.18;;;0.90;;
69059;SDS011;56135;37.534;-122.308;2023-02-13T15:08:23;0.75;;;0.55;;
69059;SDS011;56135;37.534;-122.308;2023-02-13T15:10:53;1.48;;;1.10;;
69059;SDS011;56135;37.534;-122.308;2023-02-13T15:13:33;0.90;;;0.45;;
69059;SDS011;56135;37.534;-122.308;2023-02-13T15:16:06;2.05;;;0.68;;
69059;SDS011;56135;37.534;-122.308;2023-02-13T15:21:10;6.25;;;0.55;;
69059;SDS011;56135;37.534;-122.308;2023-02-13T15:23:48;0.70;;;0.45;;
69059;SDS011;56135;37.534;-122.308;2023-02-13T15:26:21;1.50;;;0.73;;
69059;SDS011;56135;37.534;-122.308;2023-02-13T15:28:58;0.50;;;0.45;;
69059;SDS011;56135;37.534;-122.308;2023-02-13T15:31:35;2.85;;;0.80;;
69059;SDS011;56135;37.534;-122.308;2023-02-13T15:34:02;0.50;;;0.50;;
69059;SDS011;56135;37.534;-122.308;2023-02-13T15:36:50;3.72;;;0.43;;
69059;SDS011;56135;37.534;-122.308;2023-02-13T15:39:16;1.58;;;0.75;;
69059;SDS011;56135;37.534;-122.308;2023-02-13T15:41:45;1.77;;;0.73;;
69059;SDS011;56135;37.534;-122.308;2023-02-13T15:44:15;0.73;;;0.45;;
69059;SDS011;56135;37.534;-122.308;2023-02-13T15:46:48;1.38;;;0.43;;
69059;SDS011;56135;37.534;-122.308;2023-02-13T15:49:17;1.25;;;0.57;;
69059;SDS011;56135;37.534;-122.308;2023-02-13T15:51:46;1.42;;;1.13;;
69059;SDS011;56135;37.534;-122.308;2023-02-13T15:54:22;1.25;;;0.52;;
69059;SDS011;56135;37.534;-122.308;2023-02-13T15:56:49;3.95;;;0.80;;
69059;SDS011;56135;37.534;-122.308;2023-02-13T15:59:18;2.08;;;1.55;;
69059;SDS011;56135;37.534;-122.308;2023-02-13T16:01:45;2.47;;;1.10;;
69059;SDS011;56135;37.534;-122.308;2023-02-13T16:04:13;1.30;;;1.13;;
69059;SDS011;56135;37.534;-122.308;2023-02-13T16:06:41;2.05;;;0.95;;
69059;SDS011;56135;37.534;-122.308;2023-02-13T16:09:25;3.53;;;1.50;;
69059;SDS011;56135;37.534;-122.308;2023-02-13T16:11:54;1.98;;;1.25;;
69059;SDS011;56135;37.534;-122.308;2023-02-13T16:14:25;1.77;;;0.57;;
69059;SDS011;56135;37.534;-122.308;2023-02-13T16:17:01;3.05;;;0.77;;
69059;SDS011;56135;37.534;-122.308;2023-02-13T16:25:02;2.90;;;0.63;;
69059;SDS011;56135;37.534;-122.308;2023-02-13T16:27:35;2.40;;;1.80;;
69059;SDS011;56135;37.534;-122.308;2023-02-13T16:30:03;7.00;;;2.20;;
69059;SDS011;56135;37.534;-122.308;2023-02-13T16:32:33;5.45;;;1.98;;
69059;SDS011;56135;37.534;-122.308;2023-02-13T16:38:02;7.97;;;2.20;;
69059;SDS011;56135;37.534;-122.308;2023-02-13T16:40:37;5.70;;;1.63;;
69059;SDS011;56135;37.534;-122.308;2023-02-13T16:46:09;5.32;;;2.35;;
69059;SDS011;56135;37.534;-122.308;2023-02-13T16:48:38;4.82;;;1.98;;
69059;SDS011;56135;37.534;-122.308;2023-02-13T16:51:04;6.00;;;2.00;;
69059;SDS011;56135;37.534;-122.308;2023-02-13T16:53:30;3.38;;;2.30;;
69059;SDS011;56135;37.534;-122.308;2023-02-13T16:56:00;4.82;;;1.60;;
69059;SDS011;56135;37.534;-122.308;2023-02-13T16:58:30;6.80;;;1.95;;
69059;SDS011;56135;37.534;-122.308;2023-02-13T17:00:56;8.85;;;2.45;;
69059;SDS011;56135;37.534;-122.308;2023-02-13T17:03:23;6.32;;;1.92;;
69059;SDS011;56135;37.534;-122.308;2023-02-13T17:05:49;3.92;;;1.95;;
69059;SDS011;56135;37.534;-122.308;2023-02-13T17:08:15;8.05;;;2.42;;
69059;SDS011;56135;37.534;-122.308;2023-02-13T17:10:41;5.32;;;1.80;;
69059;SDS011;56135;37.534;-122.308;2023-02-13T17:13:30;7.90;;;3.03;;
69059;SDS011;56135;37.534;-122.308;2023-02-13T17:15:58;4.45;;;1.75;;
69059;SDS011;56135;37.534;-122.308;2023-02-13T17:18:24;12.13;;;4.10;;
69059;SDS011;56135;37.534;-122.308;2023-02-13T17:20:51;12.88;;;4.35;;
69059;SDS011;56135;37.534;-122.308;2023-02-13T17:23:20;7.78;;;2.95;;
69059;SDS011;56135;37.534;-122.308;2023-02-13T17:25:50;6.20;;;3.17;;
69059;SDS011;56135;37.534;-122.308;2023-02-13T17:28:21;10.80;;;4.30;;
69059;SDS011;56135;37.534;-122.308;2023-02-13T17:30:50;10.55;;;3.05;;
69059;SDS011;56135;37.534;-122.308;2023-02-13T17:33:25;4.68;;;2.20;;
69059;SDS011;56135;37.534;-122.308;2023-02-13T17:35:53;9.38;;;3.15;;
69059;SDS011;56135;37.534;-122.308;2023-02-13T17:38:19;15.18;;;3.90;;
69059;SDS011;56135;37.534;-122.308;2023-02-13T17:43:14;10.48;;;2.63;;
69059;SDS011;56135;37.534;-122.308;2023-02-13T17:45:41;6.20;;;2.53;;
69059;SDS011;56135;37.534;-122.308;2023-02-13T17:48:08;6.95;;;2.53;;
69059;SDS011;56135;37.534;-122.308;2023-02-13T17:50:34;5.45;;;1.85;;
69059;SDS011;56135;37.534;-122.308;2023-02-13T17:53:03;7.10;;;2.58;;
69059;SDS011;56135;37.534;-122.308;2023-02-13T17:55:31;6.38;;;2.63;;
69059;SDS011;56135;37.534;-122.308;2023-02-13T17:57:58;6.57;;;2.42;;
69059;SDS011;56135;37.534;-122.308;2023-02-13T18:00:26;9.73;;;2.45;;
69059;SDS011;56135;37.534;-122.308;2023-02-13T18:02:55;6.45;;;2.85;;
69059;SDS011;56135;37.534;-122.308;2023-02-13T18:05:23;5.28;;;2.53;;
69059;SDS011;56135;37.534;-122.308;2023-02-13T18:10:20;5.22;;;2.05;;
69059;SDS011;56135;37.534;-122.308;2023-02-13T18:12:51;13.15;;;3.42;;
69059;SDS011;56135;37.534;-122.308;2023-02-13T18:15:18;7.45;;;2.90;;